Keaau, HI

1:14 PM HST on July 03, 2015 (GMT -1000)
Hawaiian Paradies Park | | Change Station
CLOSE
Current Station
Personal Weather Station
Location: Keaau, HI
Elevation: 344 ft
Nearby Weather Stations

Elev 344 ft 19.57 °N, 154.99 °W | Updated 3 minutes ago

Scattered Clouds
Scattered Clouds
91.0 °F
Feels Like 99 °F
N
2.7
Wind Variable Wind from East

Today
High -- | Low -- °F
--% Chance of Precip.
Yesterday
High -- | Low -- °F
Precip. -- in
5:45 AM 7:02 PM
Waning Gibbous, 95% visible
Pressure 29.93 in
Visibility 10.0 miles
Clouds Scattered Clouds 4500 ft
Heat Index 99 °F
Dew Point 73 °F
Humidity 55%
Rainfall 0.00 in
Snow Depth Not available.
UV 10 out of 12
Pollen Not available.
Air Quality Not available.
Flu Activity Not available.
METAR PHTO 032253Z 06011KT 10SM SCT045 30/20 A2993 RMK AO2 SLP133 T03000200

More Conditions Fewer Conditions

Pressure 29.93 in
Visibility 10.0 miles
Clouds Scattered Clouds 4500 ft
Heat Index 99 °F
Dew Point 73 °F
Humidity 55%
Rainfall 0.00 in
Snow Depth Not available.
UV 10 out of 12
Pollen Not available.
Air Quality Not available.
Flu Activity Not available.
METAR PHTO 032253Z 06011KT 10SM SCT045 30/20 A2993 RMK AO2 SLP133 T03000200

More Conditions Fewer Conditions

10-Day Weather Forecast

×

Almanac

Astronomy

Jul. 03, 2015 Rise Set
Actual Time
Civil Twilight
Nautical Twilight
Astronomical Twilight
Moon
Length of Visible Light
Length of Day
Tomorrow will be .
, % of the Moon is Illuminated

Today's Extremes

State Highs State Lows

Community

WunderPhotos

Upload Photos

1,834,819 photos uploaded!

WunderBlogs® & News

Nearby

Air Quality

  Air Quality AQ Index Pollutant
Not available.

Snow Depth

Station Depth Elevation

Earthquake Activity

City Distance Mag. Time & Date
Minimum magnitude displayed is 2.5.

Coastal Water Temperatures

Place Temperature

Stations

Nearby Weather Stations

Station Location Temp. Windchill Dew Point Humidity Wind Precip. Elev Updated Type